Time;durP1;ratioP1;P1;durP2;ratioP2;P2;SDS_P1;SDS_P2;PMS_P1;PMS_P2;Temp;Humidity;BMP_temperature;BMP_pressure;BME280_temperature;BME280_humidity;BME280_pressure;Samples;Min_cycle;Max_cycle;Signal;HPM_P1;HPM_P2
2023/04/27 00:02:05;;;;;;;;;;;;;;;;;;5127335;27;20055;-72
2023/04/27 00:04:38;;;;;;;8.35;3.35;;;;;;;;;;5128673;27;19919;-74
2023/04/27 00:07:11;;;;;;;6.07;2.83;;;;;;;;;;5128474;27;20409;-75
2023/04/27 00:09:43;;;;;;;9.57;3.10;;;;;;;;;;5128965;27;20046;-74
2023/04/27 00:12:14;;;;;;;9.20;3.67;;;;;;;;;;5128732;27;20054;-73
2023/04/27 00:14:49;;;;;;;7.10;3.03;;;;;;;;;;5128910;27;20511;-73
2023/04/27 00:17:21;;;;;;;6.88;3.83;;;;;;;;;;5127820;27;20054;-72
2023/04/27 00:20:00;;;;;;;8.50;4.05;;;;;;;;;;5128418;27;20055;-73
2023/04/27 00:22:33;;;;;;;8.40;4.50;;;;;;;;;;5126516;27;20043;-73
2023/04/27 00:25:06;;;;;;;8.20;3.20;;;;;;;;;;5128450;27;20136;-74
2023/04/27 00:27:37;;;;;;;7.43;2.97;;;;;;;;;;5128499;27;20413;-73
2023/04/27 00:30:12;;;;;;;5.68;3.40;;;;;;;;;;5128369;27;20065;-73
2023/04/27 00:32:47;;;;;;;6.03;2.90;;;;;;;;;;5127761;27;20054;-72
2023/04/27 00:35:19;;;;;;;6.10;2.70;;;;;;;;;;5126490;27;20513;-73
2023/04/27 00:37:57;;;;;;;6.55;3.00;;;;;;;;;;5125602;27;20055;-72
2023/04/27 00:40:39;;;;;;;4.25;3.00;;;;;;;;;;5127289;27;20062;-73
2023/04/27 00:43:11;;;;;;;5.20;3.20;;;;;;;;;;5127176;27;20062;-72
2023/04/27 00:45:43;;;;;;;9.52;2.92;;;;;;;;;;5127532;27;20043;-73
2023/04/27 00:48:18;;;;;;;7.18;2.90;;;;;;;;;;5127492;27;20043;-74
2023/04/27 00:50:54;;;;;;;3.65;2.08;;;;;;;;;;5127440;27;20517;-73
2023/04/27 00:53:26;;;;;;;6.75;2.33;;;;;;;;;;5127721;27;20039;-74
2023/04/27 00:55:57;;;;;;;6.68;2.30;;;;;;;;;;5128154;27;20047;-74
2023/04/27 00:58:31;;;;;;;4.88;2.00;;;;;;;;;;5125919;27;20414;-75
2023/04/27 01:01:04;;;;;;;6.68;2.70;;;;;;;;;;5127751;27;20062;-72
2023/04/27 01:03:38;;;;;;;4.35;2.25;;;;;;;;;;5126618;27;20047;-73
2023/04/27 01:06:09;;;;;;;5.43;2.50;;;;;;;;;;5125989;27;20423;-73
2023/04/27 01:08:40;;;;;;;4.60;3.10;;;;;;;;;;5127610;27;20055;-77
2023/04/27 01:11:11;;;;;;;4.53;2.42;;;;;;;;;;5108992;27;20512;-74
2023/04/27 01:13:43;;;;;;;8.00;2.72;;;;;;;;;;5127425;27;20047;-73
2023/04/27 01:16:17;;;;;;;5.18;2.67;;;;;;;;;;5127637;27;20039;-73
2023/04/27 01:18:55;;;;;;;5.78;2.13;;;;;;;;;;5127127;27;20054;-72
2023/04/27 01:21:27;;;;;;;8.20;3.03;;;;;;;;;;5127742;27;20087;-73
2023/04/27 01:24:00;;;;;;;8.20;2.30;;;;;;;;;;5126946;27;20417;-73
2023/04/27 01:26:31;;;;;;;3.22;2.42;;;;;;;;;;5126510;27;20429;-73
2023/04/27 01:29:03;;;;;;;6.22;1.92;;;;;;;;;;5124578;27;20062;-74
2023/04/27 01:31:34;;;;;;;3.72;2.20;;;;;;;;;;5124757;27;20058;-73
2023/04/27 01:34:05;;;;;;;2.45;2.17;;;;;;;;;;5127254;27;20039;-74
2023/04/27 01:36:37;;;;;;;5.15;2.33;;;;;;;;;;5126566;27;20078;-74
2023/04/27 01:39:08;;;;;;;2.25;1.88;;;;;;;;;;5125807;27;20062;-73
2023/04/27 01:41:42;;;;;;;4.13;2.30;;;;;;;;;;5125159;27;20068;-73
2023/04/27 01:44:13;;;;;;;8.30;2.22;;;;;;;;;;5124981;27;20088;-73
2023/04/27 01:46:44;;;;;;;4.53;2.20;;;;;;;;;;5126692;27;20501;-72
2023/04/27 01:49:18;;;;;;;3.50;2.60;;;;;;;;;;5125179;27;20517;-73
2023/04/27 01:51:50;;;;;;;3.63;2.15;;;;;;;;;;5125529;27;20047;-73
2023/04/27 01:54:21;;;;;;;7.90;2.20;;;;;;;;;;5126693;27;20055;-72
2023/04/27 01:56:54;;;;;;;5.70;2.33;;;;;;;;;;5127064;27;20050;-73
2023/04/27 01:59:25;;;;;;;3.45;2.40;;;;;;;;;;5124604;27;20062;-73
2023/04/27 02:01:55;;;;;;;3.40;2.15;;;;;;;;;;5108309;27;20055;-73
2023/04/27 02:04:28;;;;;;;5.32;2.50;;;;;;;;;;5126892;27;20066;-74
2023/04/27 02:06:59;;;;;;;7.75;2.83;;;;;;;;;;5126641;27;20051;-74
2023/04/27 02:09:30;;;;;;;5.10;3.30;;;;;;;;;;5125141;27;20058;-72
2023/04/27 02:12:03;;;;;;;2.70;2.28;;;;;;;;;;5124267;27;20055;-73
2023/04/27 02:14:34;;;;;;;4.35;2.47;;;;;;;;;;5124964;27;20051;-72
2023/04/27 02:17:04;;;;;;;6.18;2.70;;;;;;;;;;5124695;27;20047;-73
2023/04/27 02:19:35;;;;;;;5.80;2.92;;;;;;;;;;5125056;27;20047;-73
2023/04/27 02:22:06;;;;;;;6.75;2.72;;;;;;;;;;5123825;27;20058;-73
2023/04/27 02:24:37;;;;;;;3.97;3.08;;;;;;;;;;5124255;27;20051;-74
2023/04/27 02:27:07;;;;;;;9.00;3.28;;;;;;;;;;5126187;27;20047;-73
2023/04/27 02:29:38;;;;;;;4.85;3.38;;;;;;;;;;5126423;27;20417;-72
2023/04/27 02:32:09;;;;;;;6.55;3.40;;;;;;;;;;5126013;27;20051;-72
2023/04/27 02:34:40;;;;;;;4.72;2.65;;;;;;;;;;5123248;27;20421;-72
2023/04/27 02:37:10;;;;;;;7.68;3.63;;;;;;;;;;5124965;27;20055;-72
2023/04/27 02:39:40;;;;;;;5.70;3.60;;;;;;;;;;5124140;27;20074;-72
2023/04/27 02:42:12;;;;;;;6.20;3.80;;;;;;;;;;5125941;27;20058;-73
2023/04/27 02:44:43;;;;;;;5.72;4.10;;;;;;;;;;5124453;27;20050;-72
2023/04/27 02:47:15;;;;;;;8.07;3.80;;;;;;;;;;5125398;27;20051;-73
2023/04/27 02:49:46;;;;;;;5.80;3.60;;;;;;;;;;5124015;27;20055;-74
2023/04/27 02:52:15;;;;;;;5.95;4.00;;;;;;;;;;5125701;27;20046;-73
2023/04/27 02:54:47;;;;;;;5.82;3.40;;;;;;;;;;5126030;28;20047;-74
2023/04/27 02:57:17;;;;;;;8.32;3.80;;;;;;;;;;5125416;27;20051;-73
2023/04/27 02:59:48;;;;;;;5.85;3.28;;;;;;;;;;5123626;28;20051;-74
2023/04/27 03:02:18;;;;;;;6.68;3.25;;;;;;;;;;5125949;28;20047;-73
2023/04/27 03:04:54;;;;;;;6.50;3.40;;;;;;;;;;5125460;28;20043;-72
2023/04/27 03:07:24;;;;;;;6.13;4.32;;;;;;;;;;5124828;28;20074;-71
2023/04/27 03:09:56;;;;;;;6.65;3.63;;;;;;;;;;5123568;28;20066;-72
2023/04/27 03:12:26;;;;;;;6.60;3.63;;;;;;;;;;5125557;28;20819;-72
2023/04/27 03:14:59;;;;;;;11.02;3.58;;;;;;;;;;5123809;28;20449;-73
2023/04/27 03:17:31;;;;;;;9.35;4.50;;;;;;;;;;5123530;28;20058;-72
2023/04/27 03:20:03;;;;;;;5.22;3.97;;;;;;;;;;5124732;28;20409;-71
2023/04/27 03:22:34;;;;;;;7.90;3.60;;;;;;;;;;5107165;28;20405;-72
2023/04/27 03:25:04;;;;;;;8.38;4.22;;;;;;;;;;5125512;28;20505;-72
2023/04/27 03:27:36;;;;;;;6.90;4.60;;;;;;;;;;5125274;28;20070;-71
2023/04/27 03:30:09;;;;;;;6.78;4.45;;;;;;;;;;5124663;28;20043;-72
2023/04/27 03:32:40;;;;;;;5.57;3.65;;;;;;;;;;5123911;28;20150;-73
2023/04/27 03:35:10;;;;;;;8.80;4.28;;;;;;;;;;5124021;28;20528;-72
2023/04/27 03:37:40;;;;;;;6.55;4.53;;;;;;;;;;5125527;28;20091;-74
2023/04/27 03:40:13;;;;;;;7.25;4.35;;;;;;;;;;5125287;28;20043;-73
2023/04/27 03:42:43;;;;;;;8.00;4.57;;;;;;;;;;5125447;28;20051;-72
2023/04/27 03:45:15;;;;;;;6.68;3.90;;;;;;;;;;5123504;28;20047;-73
2023/04/27 03:47:48;;;;;;;7.95;4.45;;;;;;;;;;5123584;28;20516;-73
2023/04/27 03:50:19;;;;;;;6.63;4.85;;;;;;;;;;5123207;28;20516;-72
2023/04/27 03:52:51;;;;;;;9.57;4.50;;;;;;;;;;5122857;28;20051;-72
2023/04/27 03:55:21;;;;;;;9.05;4.53;;;;;;;;;;5124179;28;20043;-73
2023/04/27 03:57:53;;;;;;;6.15;3.97;;;;;;;;;;5123612;28;20058;-73
2023/04/27 04:00:24;;;;;;;9.13;4.15;;;;;;;;;;5122889;28;20427;-73
2023/04/27 04:02:55;;;;;;;6.75;4.07;;;;;;;;;;5124061;28;20051;-74
2023/04/27 04:05:26;;;;;;;7.95;5.95;;;;;;;;;;5125281;28;20054;-72
2023/04/27 04:08:00;;;;;;;7.32;4.63;;;;;;;;;;5123627;27;20047;-73
2023/04/27 04:10:30;;;;;;;9.07;4.85;;;;;;;;;;5127240;27;20058;-74
2023/04/27 04:13:01;;;;;;;9.18;4.88;;;;;;;;;;5126775;27;20047;-73
2023/04/27 04:15:31;;;;;;;14.63;4.28;;;;;;;;;;5127230;27;20054;-72
2023/04/27 04:18:02;;;;;;;10.23;3.90;;;;;;;;;;5126817;27;20062;-72
2023/04/27 04:20:34;;;;;;;9.27;4.70;;;;;;;;;;5128709;27;20047;-74
2023/04/27 04:23:05;;;;;;;5.63;4.75;;;;;;;;;;5126902;27;20051;-73
2023/04/27 04:25:35;;;;;;;7.88;4.00;;;;;;;;;;5128625;27;20042;-74
2023/04/27 04:28:05;;;;;;;6.55;4.25;;;;;;;;;;5127043;27;20047;-73
2023/04/27 04:30:37;;;;;;;6.28;4.07;;;;;;;;;;5126898;27;20074;-74
2023/04/27 04:33:11;;;;;;;6.22;4.00;;;;;;;;;;5128463;27;20497;-72
2023/04/27 04:35:42;;;;;;;4.47;3.55;;;;;;;;;;5128584;27;20042;-73
2023/04/27 04:38:12;;;;;;;6.60;4.22;;;;;;;;;;5126030;27;20050;-72
2023/04/27 04:40:42;;;;;;;11.35;3.92;;;;;;;;;;5128861;27;20043;-73
2023/04/27 04:43:15;;;;;;;7.28;4.88;;;;;;;;;;5126597;27;20062;-72
2023/04/27 04:45:45;;;;;;;10.98;4.32;;;;;;;;;;5125923;27;20051;-74
2023/04/27 04:48:15;;;;;;;13.85;5.10;;;;;;;;;;5125227;27;20047;-73
2023/04/27 04:50:46;;;;;;;7.65;5.18;;;;;;;;;;5125876;27;20059;-72
2023/04/27 04:53:20;;;;;;;9.52;4.10;;;;;;;;;;5126369;27;20501;-73
2023/04/27 04:55:50;;;;;;;5.55;4.28;;;;;;;;;;5128628;27;20047;-73
2023/04/27 04:58:20;;;;;;;8.05;5.18;;;;;;;;;;5128623;27;20047;-73
2023/04/27 05:00:51;;;;;;;7.78;5.18;;;;;;;;;;5127788;27;20047;-74
2023/04/27 05:03:21;;;;;;;6.35;4.93;;;;;;;;;;5128131;27;20051;-73
2023/04/27 05:05:52;;;;;;;7.72;5.40;;;;;;;;;;5127215;27;20054;-74
2023/04/27 05:08:21;;;;;;;10.02;4.55;;;;;;;;;;5127823;27;20046;-73
2023/04/27 05:10:53;;;;;;;7.93;4.07;;;;;;;;;;5127912;27;20043;-73
2023/04/27 05:13:24;;;;;;;10.13;4.22;;;;;;;;;;5127730;27;20047;-72
2023/04/27 05:15:55;;;;;;;6.78;4.65;;;;;;;;;;5127972;27;20047;-73
2023/04/27 05:18:25;;;;;;;8.90;4.95;;;;;;;;;;5127127;27;20042;-72
2023/04/27 05:20:55;;;;;;;8.55;4.18;;;;;;;;;;5127429;27;20524;-73
2023/04/27 05:23:26;;;;;;;7.07;4.47;;;;;;;;;;5127075;27;20061;-73
2023/04/27 05:25:58;;;;;;;6.95;4.35;;;;;;;;;;5126907;27;20047;-73
2023/04/27 05:28:29;;;;;;;8.00;4.22;;;;;;;;;;5127296;27;20043;-73
2023/04/27 05:30:59;;;;;;;7.82;4.00;;;;;;;;;;5127251;27;20047;-74
2023/04/27 05:33:29;;;;;;;8.90;4.38;;;;;;;;;;5127343;27;20054;-73
2023/04/27 05:36:00;;;;;;;5.55;3.92;;;;;;;;;;5126498;27;20063;-73
2023/04/27 05:38:32;;;;;;;7.72;4.50;;;;;;;;;;5125027;27;20051;-72
2023/04/27 05:41:02;;;;;;;9.20;4.75;;;;;;;;;;5126684;27;20050;-73
2023/04/27 05:43:36;;;;;;;8.15;3.38;;;;;;;;;;5109166;27;20054;-73
2023/04/27 05:46:06;;;;;;;8.80;3.58;;;;;;;;;;5125261;27;20437;-73
2023/04/27 05:48:37;;;;;;;4.80;3.35;;;;;;;;;;5127289;27;20062;-72
2023/04/27 05:51:08;;;;;;;8.20;3.65;;;;;;;;;;5126694;27;20090;-73
2023/04/27 05:53:38;;;;;;;6.70;3.88;;;;;;;;;;5126452;27;20043;-74
2023/04/27 05:56:10;;;;;;;7.60;3.13;;;;;;;;;;5126644;27;20050;-72
2023/04/27 05:58:41;;;;;;;7.75;3.80;;;;;;;;;;5126677;27;20047;-73
2023/04/27 06:01:11;;;;;;;8.48;3.60;;;;;;;;;;5127125;27;20397;-73
2023/04/27 06:03:42;;;;;;;6.40;3.80;;;;;;;;;;5126918;27;20070;-72
2023/04/27 06:06:12;;;;;;;12.98;4.18;;;;;;;;;;5126957;27;20047;-72
2023/04/27 06:08:43;;;;;;;6.65;3.50;;;;;;;;;;5126630;27;20390;-73
2023/04/27 06:11:13;;;;;;;5.93;3.17;;;;;;;;;;5124366;27;20541;-72
2023/04/27 06:13:43;;;;;;;5.22;3.45;;;;;;;;;;5126375;27;20050;-73
2023/04/27 06:16:13;;;;;;;9.70;3.35;;;;;;;;;;5126955;27;20382;-73
2023/04/27 06:19:10;;;;;;;5.70;3.63;;;;;;;;;;5126426;27;20050;-73
2023/04/27 06:21:42;;;;;;;5.18;3.38;;;;;;;;;;5126353;27;20051;-74
2023/04/27 06:24:12;;;;;;;6.90;3.55;;;;;;;;;;5125968;27;20576;-73
2023/04/27 06:26:42;;;;;;;5.07;3.38;;;;;;;;;;5124508;27;20524;-73
2023/04/27 06:29:12;;;;;;;10.05;3.65;;;;;;;;;;5124978;27;20611;-73
2023/04/27 06:31:42;;;;;;;7.13;3.03;;;;;;;;;;5125067;27;20035;-72
2023/04/27 06:34:14;;;;;;;5.45;3.33;;;;;;;;;;5125887;27;20043;-72
2023/04/27 06:36:46;;;;;;;7.28;4.00;;;;;;;;;;5126021;27;20047;-73
2023/04/27 06:39:16;;;;;;;4.72;3.10;;;;;;;;;;5125925;27;20047;-73
2023/04/27 06:41:46;;;;;;;8.15;3.25;;;;;;;;;;5125507;27;20498;-73
2023/04/27 06:44:19;;;;;;;7.10;3.15;;;;;;;;;;5123764;27;20066;-73
2023/04/27 06:46:50;;;;;;;7.57;3.33;;;;;;;;;;5125651;27;20505;-72
2023/04/27 06:49:20;;;;;;;5.35;3.03;;;;;;;;;;5126303;27;20050;-72
2023/04/27 06:51:51;;;;;;;5.20;3.55;;;;;;;;;;5125853;27;20070;-73
2023/04/27 06:54:20;;;;;;;6.50;3.65;;;;;;;;;;5125116;27;20055;-72
2023/04/27 06:56:51;;;;;;;6.35;3.30;;;;;;;;;;5125504;28;20474;-72
2023/04/27 06:59:21;;;;;;;5.97;3.10;;;;;;;;;;5125589;28;20058;-72
2023/04/27 07:01:52;;;;;;;6.63;3.42;;;;;;;;;;5125759;28;20490;-72
2023/04/27 07:04:23;;;;;;;8.13;3.75;;;;;;;;;;5125581;28;20047;-72
2023/04/27 07:06:54;;;;;;;4.63;3.50;;;;;;;;;;5125625;28;20054;-73
2023/04/27 07:09:27;;;;;;;7.93;3.55;;;;;;;;;;5126145;28;20043;-73
2023/04/27 07:12:00;;;;;;;3.78;3.15;;;;;;;;;;5125659;28;20058;-73
2023/04/27 07:14:32;;;;;;;3.92;2.92;;;;;;;;;;5125246;28;20520;-72
2023/04/27 07:17:02;;;;;;;6.10;3.90;;;;;;;;;;5125468;28;20054;-73
2023/04/27 07:19:33;;;;;;;4.28;3.53;;;;;;;;;;5125453;28;20051;-72
2023/04/27 07:22:03;;;;;;;9.75;3.70;;;;;;;;;;5124597;27;20548;-72
2023/04/27 07:24:34;;;;;;;8.38;3.47;;;;;;;;;;5125356;28;20046;-73
2023/04/27 07:27:03;;;;;;;6.47;3.28;;;;;;;;;;5125554;28;20413;-73
2023/04/27 07:29:34;;;;;;;4.97;3.17;;;;;;;;;;5125096;28;20509;-73
2023/04/27 07:32:07;;;;;;;6.82;3.20;;;;;;;;;;5125067;28;20058;-73
2023/04/27 07:34:38;;;;;;;7.22;3.22;;;;;;;;;;5125453;28;20061;-72
2023/04/27 07:37:22;;;;;;;6.28;3.60;;;;;;;;;;5124986;28;20046;-72
2023/04/27 07:39:53;;;;;;;8.13;3.63;;;;;;;;;;5125791;28;20043;-72
2023/04/27 07:42:23;;;;;;;6.88;3.25;;;;;;;;;;5126609;27;20504;-73
2023/04/27 07:44:56;;;;;;;4.55;3.38;;;;;;;;;;5129782;27;20047;-74
2023/04/27 07:47:26;;;;;;;6.80;3.35;;;;;;;;;;5129094;27;20050;-72
2023/04/27 07:49:56;;;;;;;5.55;3.13;;;;;;;;;;5129000;27;20039;-73
2023/04/27 07:52:28;;;;;;;9.00;4.03;;;;;;;;;;5129172;27;20047;-73
2023/04/27 07:55:00;;;;;;;6.47;3.58;;;;;;;;;;5129443;27;20442;-73
2023/04/27 07:57:31;;;;;;;6.95;3.83;;;;;;;;;;5129199;27;20043;-72
2023/04/27 08:00:03;;;;;;;7.35;4.10;;;;;;;;;;5129132;27;20046;-73
2023/04/27 08:02:39;;;;;;;7.30;3.45;;;;;;;;;;5133791;27;20368;-74
2023/04/27 08:05:11;;;;;;;5.95;4.13;;;;;;;;;;5127343;27;20054;-73
2023/04/27 08:07:42;;;;;;;5.15;3.22;;;;;;;;;;5128719;27;20051;-73
2023/04/27 08:10:14;;;;;;;5.90;3.45;;;;;;;;;;5128763;27;20047;-73
2023/04/27 08:12:45;;;;;;;4.72;3.42;;;;;;;;;;5127337;27;20551;-72
2023/04/27 08:15:15;;;;;;;4.85;3.35;;;;;;;;;;5128705;27;20054;-73
2023/04/27 08:17:47;;;;;;;8.88;4.07;;;;;;;;;;5128826;27;20440;-74
2023/04/27 08:20:17;;;;;;;5.35;4.43;;;;;;;;;;5128312;27;20050;-72
2023/04/27 08:22:46;;;;;;;5.80;4.03;;;;;;;;;;5128431;27;20055;-74
2023/04/27 08:25:18;;;;;;;4.90;4.10;;;;;;;;;;5128548;27;20047;-74
2023/04/27 08:27:49;;;;;;;6.60;4.40;;;;;;;;;;5128536;27;20032;-73
2023/04/27 08:30:20;;;;;;;7.88;4.07;;;;;;;;;;5128560;27;20043;-72
2023/04/27 08:32:50;;;;;;;6.85;4.22;;;;;;;;;;5128209;27;20058;-73
2023/04/27 08:35:20;;;;;;;9.18;5.05;;;;;;;;;;5128507;27;20051;-73
2023/04/27 08:37:50;;;;;;;6.63;3.88;;;;;;;;;;5128463;27;20889;-73
2023/04/27 08:40:20;;;;;;;7.28;4.43;;;;;;;;;;5126533;27;20542;-73
2023/04/27 08:42:57;;;;;;;7.03;4.25;;;;;;;;;;5127745;27;20082;-72
2023/04/27 08:45:27;;;;;;;8.32;5.20;;;;;;;;;;5127999;27;20058;-72
2023/04/27 08:47:58;;;;;;;5.90;4.40;;;;;;;;;;5126127;27;20055;-73
2023/04/27 08:50:28;;;;;;;5.88;4.32;;;;;;;;;;5128020;27;20047;-74
2023/04/27 08:52:59;;;;;;;6.53;4.75;;;;;;;;;;5128404;27;20058;-73
2023/04/27 08:55:29;;;;;;;7.18;4.15;;;;;;;;;;5127314;27;20051;-74
2023/04/27 08:58:00;;;;;;;7.82;4.97;;;;;;;;;;5127812;27;20046;-72
2023/04/27 09:00:41;;;;;;;6.20;4.30;;;;;;;;;;5128059;27;20077;-72
2023/04/27 09:03:24;;;;;;;9.52;4.95;;;;;;;;;;5127979;27;20058;-73
2023/04/27 09:05:56;;;;;;;8.90;5.13;;;;;;;;;;5127073;27;20047;-73
2023/04/27 09:08:51;;;;;;;8.27;4.90;;;;;;;;;;5127656;27;20055;-73
2023/04/27 09:11:32;;;;;;;8.82;4.47;;;;;;;;;;5126477;27;20039;-72
2023/04/27 09:14:23;;;;;;;7.00;5.32;;;;;;;;;;5127590;27;20087;-73
2023/04/27 09:16:59;;;;;;;10.73;4.97;;;;;;;;;;5127460;27;20078;-73
2023/04/27 09:19:31;;;;;;;7.75;4.57;;;;;;;;;;5126104;27;20039;-74
2023/04/27 09:22:13;;;;;;;10.27;5.03;;;;;;;;;;5127314;27;20058;-73
2023/04/27 09:24:53;;;;;;;11.05;4.97;;;;;;;;;;5127649;27;20051;-74
2023/04/27 09:27:24;;;;;;;6.65;4.57;;;;;;;;;;5126097;27;20050;-73
2023/04/27 09:29:56;;;;;;;9.02;5.50;;;;;;;;;;5125841;27;20055;-72
2023/04/27 09:32:27;;;;;;;7.25;4.60;;;;;;;;;;5125689;27;20423;-74
2023/04/27 09:34:57;;;;;;;8.68;5.07;;;;;;;;;;5126908;27;20043;-72
2023/04/27 09:37:28;;;;;;;7.57;4.38;;;;;;;;;;5127263;27;20047;-72
2023/04/27 09:40:01;;;;;;;9.90;4.90;;;;;;;;;;5124996;27;20532;-73
2023/04/27 09:42:31;;;;;;;8.60;4.53;;;;;;;;;;5126854;27;20412;-72
2023/04/27 09:45:02;;;;;;;6.95;4.63;;;;;;;;;;5127487;27;20051;-74
2023/04/27 09:47:36;;;;;;;10.02;5.28;;;;;;;;;;5127276;27;20054;-71
2023/04/27 09:50:08;;;;;;;9.63;4.45;;;;;;;;;;5126769;27;20043;-73
2023/04/27 09:52:38;;;;;;;8.00;4.78;;;;;;;;;;5126650;27;20054;-73
2023/04/27 09:55:20;;;;;;;9.88;4.93;;;;;;;;;;5124433;27;20043;-76
2023/04/27 09:57:55;;;;;;;;;;;;;;;;;;5126399;27;20512;-77
2023/04/27 10:00:35;;;;;;;6.85;4.40;;;;;;;;;;5124904;27;19919;-78
2023/04/27 10:03:33;;;;;;;8.00;3.95;;;;;;;;;;5126761;27;20043;-72
2023/04/27 10:06:21;;;;;;;8.88;4.70;;;;;;;;;;5126021;27;20043;-74
2023/04/27 10:08:53;;;;;;;12.00;5.35;;;;;;;;;;5126283;27;20046;-72
2023/04/27 10:11:38;;;;;;;11.55;5.07;;;;;;;;;;5126470;27;20664;-73
2023/04/27 10:14:16;;;;;;;15.15;6.07;;;;;;;;;;5126618;27;20413;-73
2023/04/27 10:16:54;;;;;;;11.45;5.57;;;;;;;;;;5125125;27;20047;-74
2023/04/27 10:19:25;;;;;;;11.07;5.07;;;;;;;;;;5126324;27;20043;-74
2023/04/27 10:22:05;;;;;;;10.02;5.97;;;;;;;;;;5125087;27;20057;-74
2023/04/27 10:24:41;;;;;;;17.42;7.68;;;;;;;;;;5126071;27;20051;-73
2023/04/27 10:27:18;;;;;;;8.75;5.82;;;;;;;;;;5125998;27;20047;-72
2023/04/27 10:29:51;;;;;;;16.50;6.40;;;;;;;;;;5125853;27;20054;-72
2023/04/27 10:32:24;;;;;;;16.58;6.97;;;;;;;;;;5126071;27;20043;-72
2023/04/27 10:35:06;;;;;;;10.75;5.82;;;;;;;;;;5126265;27;20051;-72
2023/04/27 10:37:41;;;;;;;12.70;4.90;;;;;;;;;;5126410;27;20028;-72
2023/04/27 10:40:16;;;;;;;11.95;4.07;;;;;;;;;;5125518;27;20062;-72
2023/04/27 10:42:50;;;;;;;9.35;4.40;;;;;;;;;;5126001;27;20054;-72
2023/04/27 10:45:27;;;;;;;10.07;5.35;;;;;;;;;;5126121;27;20060;-72
2023/04/27 10:48:00;;;;;;;11.00;5.45;;;;;;;;;;5125375;27;20043;-73
2023/04/27 10:50:33;;;;;;;9.98;5.15;;;;;;;;;;5126280;27;20039;-73
2023/04/27 10:53:05;;;;;;;12.05;4.78;;;;;;;;;;5126016;27;20055;-73
2023/04/27 10:55:37;;;;;;;11.43;5.05;;;;;;;;;;5125647;27;20046;-74
2023/04/27 10:58:06;;;;;;;8.55;4.80;;;;;;;;;;5125729;28;20066;-71
2023/04/27 11:00:45;;;;;;;11.75;4.53;;;;;;;;;;5123742;28;20529;-74
2023/04/27 11:03:23;;;;;;;21.20;5.20;;;;;;;;;;5125700;28;20034;-72
2023/04/27 11:06:02;;;;;;;8.32;3.33;;;;;;;;;;5125661;28;20051;-73
2023/04/27 11:08:35;;;;;;;5.35;4.03;;;;;;;;;;5125653;28;20508;-73
2023/04/27 11:11:08;;;;;;;7.40;3.20;;;;;;;;;;5125304;28;20047;-72
2023/04/27 11:13:39;;;;;;;9.05;4.38;;;;;;;;;;5125208;28;20050;-73
2023/04/27 11:16:10;;;;;;;8.20;3.67;;;;;;;;;;5125397;27;20031;-72
2023/04/27 11:18:40;;;;;;;11.30;3.75;;;;;;;;;;5128992;27;20047;-76
2023/04/27 11:21:16;;;;;;;6.95;3.80;;;;;;;;;;5130110;27;20043;-73
2023/04/27 11:23:48;;;;;;;7.80;4.05;;;;;;;;;;5129845;27;20520;-72
2023/04/27 11:26:25;;;;;;;8.45;3.00;;;;;;;;;;5128624;27;20417;-73
2023/04/27 11:29:03;;;;;;;4.53;3.33;;;;;;;;;;5128354;27;20058;-73
2023/04/27 11:31:50;;;;;;;7.00;3.70;;;;;;;;;;5129366;27;20047;-73
2023/04/27 11:34:23;;;;;;;7.90;3.38;;;;;;;;;;5129376;27;20039;-73
2023/04/27 11:37:02;;;;;;;16.10;3.70;;;;;;;;;;5130112;27;20047;-73
2023/04/27 11:39:46;;;;;;;6.72;2.90;;;;;;;;;;5129447;27;20043;-72
2023/04/27 11:42:20;;;;;;;4.95;2.28;;;;;;;;;;5129820;27;20051;-72
2023/04/27 11:44:59;;;;;;;4.80;2.47;;;;;;;;;;5129190;27;20054;-72
2023/04/27 11:47:30;;;;;;;4.20;3.00;;;;;;;;;;5129268;27;20035;-74
2023/04/27 11:50:04;;;;;;;4.47;2.55;;;;;;;;;;5128797;27;20051;-73
2023/04/27 11:52:37;;;;;;;3.35;2.20;;;;;;;;;;5129012;27;20051;-73
2023/04/27 11:55:14;;;;;;;3.63;2.42;;;;;;;;;;5129279;27;20043;-73
2023/04/27 11:57:44;;;;;;;5.93;2.90;;;;;;;;;;5129154;27;20142;-73
2023/04/27 12:00:15;;;;;;;3.45;2.55;;;;;;;;;;5129237;27;20043;-74
2023/04/27 12:02:45;;;;;;;5.72;2.50;;;;;;;;;;5129072;27;20046;-73
2023/04/27 12:05:16;;;;;;;4.38;2.50;;;;;;;;;;5128912;27;20865;-73
2023/04/27 12:07:47;;;;;;;3.40;2.70;;;;;;;;;;5128517;27;20051;-74
2023/04/27 12:10:17;;;;;;;5.25;2.70;;;;;;;;;;5128603;27;20588;-73
2023/04/27 12:12:47;;;;;;;5.70;2.55;;;;;;;;;;5128404;27;20043;-73
2023/04/27 12:15:18;;;;;;;8.80;3.00;;;;;;;;;;5129663;27;20043;-74
2023/04/27 12:17:48;;;;;;;5.32;2.58;;;;;;;;;;5128671;27;20528;-73
2023/04/27 12:20:18;;;;;;;6.45;2.80;;;;;;;;;;5126621;27;20059;-72
2023/04/27 12:22:49;;;;;;;5.93;2.53;;;;;;;;;;5127067;27;20059;-72
2023/04/27 12:25:20;;;;;;;5.43;2.85;;;;;;;;;;5129219;27;20051;-73
2023/04/27 12:27:51;;;;;;;8.77;2.97;;;;;;;;;;5128479;27;20595;-71
2023/04/27 12:30:22;;;;;;;6.43;2.88;;;;;;;;;;5127575;27;20493;-72
2023/04/27 12:32:53;;;;;;;6.32;2.33;;;;;;;;;;5128375;27;20437;-72
2023/04/27 12:35:25;;;;;;;4.28;3.00;;;;;;;;;;5128966;27;20051;-72
2023/04/27 12:37:56;;;;;;;5.20;3.30;;;;;;;;;;5128482;27;20043;-72
2023/04/27 12:40:26;;;;;;;7.97;2.78;;;;;;;;;;5128013;27;20039;-74
2023/04/27 12:42:56;;;;;;;9.55;3.40;;;;;;;;;;5126690;27;20051;-74
2023/04/27 12:45:29;;;;;;;2.83;2.22;;;;;;;;;;5127985;27;20047;-74
2023/04/27 12:48:00;;;;;;;7.20;3.03;;;;;;;;;;5128519;27;20044;-72
2023/04/27 12:50:32;;;;;;;4.95;2.88;;;;;;;;;;5128399;27;20425;-73
2023/04/27 12:53:03;;;;;;;5.75;2.72;;;;;;;;;;5127828;27;20051;-76
2023/04/27 12:55:33;;;;;;;3.80;3.00;;;;;;;;;;5127850;27;20054;-72
2023/04/27 12:58:03;;;;;;;5.60;4.15;;;;;;;;;;5127932;27;20054;-73
2023/04/27 13:00:37;;;;;;;4.32;3.20;;;;;;;;;;5128051;27;20046;-74
2023/04/27 13:03:09;;;;;;;4.85;2.72;;;;;;;;;;5128198;27;20058;-73
2023/04/27 13:05:39;;;;;;;5.45;3.20;;;;;;;;;;5126260;27;20051;-73
2023/04/27 13:08:09;;;;;;;2.95;2.50;;;;;;;;;;5127445;27;20485;-72
2023/04/27 13:10:45;;;;;;;10.13;2.88;;;;;;;;;;5126604;27;20051;-73
2023/04/27 13:13:15;;;;;;;8.18;2.63;;;;;;;;;;5127217;27;20062;-73
2023/04/27 13:15:46;;;;;;;4.07;3.00;;;;;;;;;;5126782;27;20043;-73
2023/04/27 13:18:16;;;;;;;5.72;2.78;;;;;;;;;;5127519;27;20043;-73
2023/04/27 13:20:47;;;;;;;9.73;3.78;;;;;;;;;;5127373;27;20043;-72
2023/04/27 13:23:18;;;;;;;5.75;3.10;;;;;;;;;;5127771;27;20801;-74
2023/04/27 13:25:48;;;;;;;5.43;3.35;;;;;;;;;;5127455;27;20047;-74
2023/04/27 13:28:19;;;;;;;3.50;2.50;;;;;;;;;;5127313;27;20050;-74
2023/04/27 13:30:48;;;;;;;4.53;3.20;;;;;;;;;;5127372;27;20054;-72
2023/04/27 13:33:19;;;;;;;7.28;3.08;;;;;;;;;;5127211;27;20036;-73
2023/04/27 13:35:52;;;;;;;6.43;2.78;;;;;;;;;;5127594;27;20039;-73
2023/04/27 13:38:22;;;;;;;3.28;2.45;;;;;;;;;;5127378;27;20043;-75
2023/04/27 13:40:53;;;;;;;9.98;3.08;;;;;;;;;;5126979;27;20043;-74
2023/04/27 13:43:24;;;;;;;4.65;3.22;;;;;;;;;;5126098;27;20059;-74
2023/04/27 13:45:56;;;;;;;14.35;4.70;;;;;;;;;;5125198;27;20066;-74
2023/04/27 13:48:29;;;;;;;4.93;3.05;;;;;;;;;;5126802;27;20051;-73
2023/04/27 13:51:00;;;;;;;11.82;10.60;;;;;;;;;;5127139;27;20520;-73
2023/04/27 13:53:31;;;;;;;3.05;2.38;;;;;;;;;;5126636;27;20051;-74
2023/04/27 13:56:01;;;;;;;4.38;2.67;;;;;;;;;;5127368;27;20054;-75
2023/04/27 13:58:33;;;;;;;10.07;2.80;;;;;;;;;;5126757;27;20406;-74
2023/04/27 14:01:03;;;;;;;3.42;2.53;;;;;;;;;;5127231;27;20505;-74
2023/04/27 14:03:35;;;;;;;6.50;2.67;;;;;;;;;;5126040;27;20050;-76
2023/04/27 14:06:07;;;;;;;2.95;2.45;;;;;;;;;;5126796;27;20055;-74
2023/04/27 14:08:38;;;;;;;2.83;2.22;;;;;;;;;;5126533;27;20050;-75
2023/04/27 14:11:12;;;;;;;6.35;3.15;;;;;;;;;;5126469;27;20058;-73
2023/04/27 14:13:42;;;;;;;4.32;2.78;;;;;;;;;;5126620;27;20047;-74
2023/04/27 14:16:13;;;;;;;4.55;2.70;;;;;;;;;;5126380;27;20068;-73
2023/04/27 14:18:43;;;;;;;3.10;2.63;;;;;;;;;;5125034;27;20051;-73
2023/04/27 14:21:14;;;;;;;4.00;2.30;;;;;;;;;;5126228;27;20668;-76
2023/04/27 14:23:43;;;;;;;4.80;2.40;;;;;;;;;;5125273;27;20437;-74
2023/04/27 14:26:13;;;;;;;5.03;2.38;;;;;;;;;;5126174;27;20046;-75
2023/04/27 14:28:45;;;;;;;3.00;1.90;;;;;;;;;;5126132;27;20409;-74
2023/04/27 14:31:15;;;;;;;2.78;1.80;;;;;;;;;;5125735;27;20740;-77
2023/04/27 14:33:46;;;;;;;4.78;3.00;;;;;;;;;;5124578;27;20556;-73
2023/04/27 14:36:19;;;;;;;2.95;1.92;;;;;;;;;;5126328;27;20043;-73
2023/04/27 14:38:49;;;;;;;5.22;2.40;;;;;;;;;;5126260;27;20050;-73
2023/04/27 14:41:20;;;;;;;5.38;2.30;;;;;;;;;;5126426;27;20474;-73
2023/04/27 14:43:51;;;;;;;6.45;2.22;;;;;;;;;;5124407;27;20047;-74
2023/04/27 14:46:21;;;;;;;4.05;2.17;;;;;;;;;;5124198;27;20051;-73
2023/04/27 14:48:52;;;;;;;6.47;2.28;;;;;;;;;;5126134;27;20043;-71
2023/04/27 14:51:25;;;;;;;4.22;2.15;;;;;;;;;;5125408;27;20409;-75
2023/04/27 14:53:56;;;;;;;4.05;3.42;;;;;;;;;;5125607;27;20046;-73
2023/04/27 14:56:26;;;;;;;5.45;2.67;;;;;;;;;;5125807;27;20871;-74
2023/04/27 14:58:56;;;;;;;3.80;2.33;;;;;;;;;;5125862;28;20050;-73
2023/04/27 15:01:26;;;;;;;2.85;2.30;;;;;;;;;;5125005;28;20051;-73
2023/04/27 15:03:56;;;;;;;3.45;1.92;;;;;;;;;;5125653;28;20417;-78
2023/04/27 15:06:29;;;;;;;3.33;2.15;;;;;;;;;;5125592;28;20054;-74
2023/04/27 15:08:59;;;;;;;2.42;1.95;;;;;;;;;;5125708;28;20039;-74
2023/04/27 15:11:28;;;;;;;2.92;1.90;;;;;;;;;;5126071;28;20382;-74
2023/04/27 15:13:59;;;;;;;2.83;1.88;;;;;;;;;;5125633;28;20047;-73